sensor_id;sensor_type;location;lat;lon;timestamp;temperature;humidity
34558;DHT22;24708;48.888;8.736;2023-06-01T05:35:03;27.20;84.40
34558;DHT22;24708;48.888;8.736;2023-06-01T05:37:32;27.20;82.90
34558;DHT22;24708;48.888;8.736;2023-06-01T05:39:59;27.50;83.70
34558;DHT22;24708;48.888;8.736;2023-06-01T05:42:27;27.10;80.40
34558;DHT22;24708;48.888;8.736;2023-06-01T05:44:54;26.50;85.00
34558;DHT22;24708;48.888;8.736;2023-06-01T05:47:21;26.50;82.10
34558;DHT22;24708;48.888;8.736;2023-06-01T05:49:48;26.80;82.30
34558;DHT22;24708;48.888;8.736;2023-06-01T05:52:16;27.00;83.20
34558;DHT22;24708;48.888;8.736;2023-06-01T05:54:43;27.20;81.30
34558;DHT22;24708;48.888;8.736;2023-06-01T05:57:10;28.80;81.00
34558;DHT22;24708;48.888;8.736;2023-06-01T05:59:37;26.80;79.70
34558;DHT22;24708;48.888;8.736;2023-06-01T06:02:05;27.20;81.10
34558;DHT22;24708;48.888;8.736;2023-06-01T06:07:00;28.60;79.00
34558;DHT22;24708;48.888;8.736;2023-06-01T06:09:29;28.50;77.90
34558;DHT22;24708;48.888;8.736;2023-06-01T06:11:57;28.90;76.10
34558;DHT22;24708;48.888;8.736;2023-06-01T06:14:25;28.80;80.00
34558;DHT22;24708;48.888;8.736;2023-06-01T06:16:52;29.30;75.10
34558;DHT22;24708;48.888;8.736;2023-06-01T06:26:42;29.70;74.10
34558;DHT22;24708;48.888;8.736;2023-06-01T06:29:10;29.30;71.60
34558;DHT22;24708;48.888;8.736;2023-06-01T06:31:37;29.80;70.30
34558;DHT22;24708;48.888;8.736;2023-06-01T06:36:32;29.10;69.00
34558;DHT22;24708;48.888;8.736;2023-06-01T06:39:00;30.50;72.70
34558;DHT22;24708;48.888;8.736;2023-06-01T06:41:27;29.30;70.70
34558;DHT22;24708;48.888;8.736;2023-06-01T06:43:54;28.90;70.70
34558;DHT22;24708;48.888;8.736;2023-06-01T06:46:22;29.70;69.80
34558;DHT22;24708;48.888;8.736;2023-06-01T06:48:49;29.60;71.10
34558;DHT22;24708;48.888;8.736;2023-06-01T06:51:16;28.60;69.10
34558;DHT22;24708;48.888;8.736;2023-06-01T06:53:44;29.10;69.00
34558;DHT22;24708;48.888;8.736;2023-06-01T06:56:11;30.10;68.80
34558;DHT22;24708;48.888;8.736;2023-06-01T06:58:38;30.10;68.30
34558;DHT22;24708;48.888;8.736;2023-06-01T07:01:05;30.60;69.50
34558;DHT22;24708;48.888;8.736;2023-06-01T07:03:33;29.00;67.30
34558;DHT22;24708;48.888;8.736;2023-06-01T07:10:56;30.30;67.00
34558;DHT22;24708;48.888;8.736;2023-06-01T07:13:23;31.30;66.60
34558;DHT22;24708;48.888;8.736;2023-06-01T07:15:52;31.50;65.40
34558;DHT22;24708;48.888;8.736;2023-06-01T07:18:20;32.10;64.50
34558;DHT22;24708;48.888;8.736;2023-06-01T07:20:47;32.90;60.80
34558;DHT22;24708;48.888;8.736;2023-06-01T07:23:14;33.20;62.50
34558;DHT22;24708;48.888;8.736;2023-06-01T07:25:43;33.20;60.00
34558;DHT22;24708;48.888;8.736;2023-06-01T07:28:10;33.60;59.40
34558;DHT22;24708;48.888;8.736;2023-06-01T07:30:39;34.50;58.80
34558;DHT22;24708;48.888;8.736;2023-06-01T07:33:07;34.50;58.70
34558;DHT22;24708;48.888;8.736;2023-06-01T07:35:35;34.40;57.80
34558;DHT22;24708;48.888;8.736;2023-06-01T07:38:02;34.20;56.30
34558;DHT22;24708;48.888;8.736;2023-06-01T07:40:30;33.80;57.20
34558;DHT22;24708;48.888;8.736;2023-06-01T07:42:57;34.40;57.60
34558;DHT22;24708;48.888;8.736;2023-06-01T07:45:25;35.20;56.00
34558;DHT22;24708;48.888;8.736;2023-06-01T07:47:52;34.80;54.70
34558;DHT22;24708;48.888;8.736;2023-06-01T07:50:21;35.00;59.20
34558;DHT22;24708;48.888;8.736;2023-06-01T07:52:50;33.70;58.40
34558;DHT22;24708;48.888;8.736;2023-06-01T07:55:19;33.90;55.30
34558;DHT22;24708;48.888;8.736;2023-06-01T07:57:46;33.90;57.30
34558;DHT22;24708;48.888;8.736;2023-06-01T08:00:14;34.40;54.80
34558;DHT22;24708;48.888;8.736;2023-06-01T08:02:44;33.80;56.80
34558;DHT22;24708;48.888;8.736;2023-06-01T08:05:12;33.70;55.80
34558;DHT22;24708;48.888;8.736;2023-06-01T08:07:39;33.50;55.40
34558;DHT22;24708;48.888;8.736;2023-06-01T08:10:07;33.90;57.30
34558;DHT22;24708;48.888;8.736;2023-06-01T08:12:35;33.50;56.30
34558;DHT22;24708;48.888;8.736;2023-06-01T08:15:03;33.90;56.60
34558;DHT22;24708;48.888;8.736;2023-06-01T08:17:31;33.60;55.60
34558;DHT22;24708;48.888;8.736;2023-06-01T08:19:58;33.00;57.10
34558;DHT22;24708;48.888;8.736;2023-06-01T08:27:24;34.30;55.30
34558;DHT22;24708;48.888;8.736;2023-06-01T08:29:52;34.00;54.90
34558;DHT22;24708;48.888;8.736;2023-06-01T08:32:21;34.80;58.90
34558;DHT22;24708;48.888;8.736;2023-06-01T08:34:49;34.20;55.90
34558;DHT22;24708;48.888;8.736;2023-06-01T08:37:16;33.70;57.70
34558;DHT22;24708;48.888;8.736;2023-06-01T08:39:44;33.10;60.90
34558;DHT22;24708;48.888;8.736;2023-06-01T08:45:04;34.60;57.90
34558;DHT22;24708;48.888;8.736;2023-06-01T08:47:32;36.00;55.20
34558;DHT22;24708;48.888;8.736;2023-06-01T08:49:59;35.30;56.00
34558;DHT22;24708;48.888;8.736;2023-06-01T08:52:29;33.30;57.80
34558;DHT22;24708;48.888;8.736;2023-06-01T08:55:00;32.90;57.60
34558;DHT22;24708;48.888;8.736;2023-06-01T08:57:28;32.60;57.30
34558;DHT22;24708;48.888;8.736;2023-06-01T08:59:57;32.90;59.60
34558;DHT22;24708;48.888;8.736;2023-06-01T09:02:26;32.50;57.90
34558;DHT22;24708;48.888;8.736;2023-06-01T09:04:54;32.90;57.30
34558;DHT22;24708;48.888;8.736;2023-06-01T09:07:22;33.00;57.50
34558;DHT22;24708;48.888;8.736;2023-06-01T09:09:50;32.70;58.00
34558;DHT22;24708;48.888;8.736;2023-06-01T09:12:24;32.80;57.30
34558;DHT22;24708;48.888;8.736;2023-06-01T09:15:13;33.40;56.80
34558;DHT22;24708;48.888;8.736;2023-06-01T09:17:46;33.60;59.20
34558;DHT22;24708;48.888;8.736;2023-06-01T09:20:25;32.70;58.80
34558;DHT22;24708;48.888;8.736;2023-06-01T09:22:53;32.50;57.70
34558;DHT22;24708;48.888;8.736;2023-06-01T09:25:26;32.60;58.00
34558;DHT22;24708;48.888;8.736;2023-06-01T09:27:55;31.80;58.00
34558;DHT22;24708;48.888;8.736;2023-06-01T09:30:25;32.70;58.10
34558;DHT22;24708;48.888;8.736;2023-06-01T09:33:25;32.90;58.20
34558;DHT22;24708;48.888;8.736;2023-06-01T09:35:54;32.90;57.10
34558;DHT22;24708;48.888;8.736;2023-06-01T09:38:25;33.30;58.10
34558;DHT22;24708;48.888;8.736;2023-06-01T09:41:02;33.40;56.30
34558;DHT22;24708;48.888;8.736;2023-06-01T09:43:33;35.00;54.50
34558;DHT22;24708;48.888;8.736;2023-06-01T09:46:11;35.00;54.70
34558;DHT22;24708;48.888;8.736;2023-06-01T09:48:41;34.20;55.50
34558;DHT22;24708;48.888;8.736;2023-06-01T09:51:24;33.10;59.10
34558;DHT22;24708;48.888;8.736;2023-06-01T09:53:56;33.30;56.50
34558;DHT22;24708;48.888;8.736;2023-06-01T09:56:23;32.70;58.80
34558;DHT22;24708;48.888;8.736;2023-06-01T09:59:00;32.80;59.00
34558;DHT22;24708;48.888;8.736;2023-06-01T10:01:31;32.40;57.90
34558;DHT22;24708;48.888;8.736;2023-06-01T10:04:00;32.30;57.80
34558;DHT22;24708;48.888;8.736;2023-06-01T10:06:29;33.00;57.90
34558;DHT22;24708;48.888;8.736;2023-06-01T10:08:58;34.40;57.00
34558;DHT22;24708;48.888;8.736;2023-06-01T10:11:27;33.50;55.70
34558;DHT22;24708;48.888;8.736;2023-06-01T10:13:56;33.60;56.40
34558;DHT22;24708;48.888;8.736;2023-06-01T10:16:24;32.90;56.70
34558;DHT22;24708;48.888;8.736;2023-06-01T10:21:20;33.10;56.00
34558;DHT22;24708;48.888;8.736;2023-06-01T10:23:47;32.80;56.00
34558;DHT22;24708;48.888;8.736;2023-06-01T10:26:16;32.30;56.80
34558;DHT22;24708;48.888;8.736;2023-06-01T10:28:45;31.60;62.80
34558;DHT22;24708;48.888;8.736;2023-06-01T10:31:37;31.80;58.40
34558;DHT22;24708;48.888;8.736;2023-06-01T10:34:06;32.20;58.10
34558;DHT22;24708;48.888;8.736;2023-06-01T10:39:32;32.40;57.20
34558;DHT22;24708;48.888;8.736;2023-06-01T10:57:44;31.00;58.60
34558;DHT22;24708;48.888;8.736;2023-06-01T11:00:21;31.40;57.80
34558;DHT22;24708;48.888;8.736;2023-06-01T11:02:57;30.40;57.60
34558;DHT22;24708;48.888;8.736;2023-06-01T11:05:47;31.20;57.10
34558;DHT22;24708;48.888;8.736;2023-06-01T11:13:28;30.50;63.60
34558;DHT22;24708;48.888;8.736;2023-06-01T11:18:51;30.20;58.90
34558;DHT22;24708;48.888;8.736;2023-06-01T11:21:40;30.40;58.50
34558;DHT22;24708;48.888;8.736;2023-06-01T11:24:17;30.50;60.30
34558;DHT22;24708;48.888;8.736;2023-06-01T11:26:49;30.70;59.20
34558;DHT22;24708;48.888;8.736;2023-06-01T11:29:18;30.50;60.60
34558;DHT22;24708;48.888;8.736;2023-06-01T11:31:51;30.70;60.30
34558;DHT22;24708;48.888;8.736;2023-06-01T11:34:36;31.60;58.10
34558;DHT22;24708;48.888;8.736;2023-06-01T11:37:16;31.80;57.70
34558;DHT22;24708;48.888;8.736;2023-06-01T11:39:45;31.70;57.80
34558;DHT22;24708;48.888;8.736;2023-06-01T11:44:43;30.30;59.00
34558;DHT22;24708;48.888;8.736;2023-06-01T11:47:12;29.40;66.10
34558;DHT22;24708;48.888;8.736;2023-06-01T11:52:11;29.20;58.20
34558;DHT22;24708;48.888;8.736;2023-06-01T11:54:39;29.00;59.50
34558;DHT22;24708;48.888;8.736;2023-06-01T11:57:07;29.00;62.30
34558;DHT22;24708;48.888;8.736;2023-06-01T11:59:42;29.00;64.40
34558;DHT22;24708;48.888;8.736;2023-06-01T12:02:21;28.90;62.00
34558;DHT22;24708;48.888;8.736;2023-06-01T12:04:59;29.60;63.00
34558;DHT22;24708;48.888;8.736;2023-06-01T12:07:49;28.30;62.10
34558;DHT22;24708;48.888;8.736;2023-06-01T12:10:21;27.90;63.90
34558;DHT22;24708;48.888;8.736;2023-06-01T12:15:18;27.70;64.10
34558;DHT22;24708;48.888;8.736;2023-06-01T12:17:50;28.70;65.30
34558;DHT22;24708;48.888;8.736;2023-06-01T12:20:38;28.80;62.70
34558;DHT22;24708;48.888;8.736;2023-06-01T12:23:14;28.40;69.10
34558;DHT22;24708;48.888;8.736;2023-06-01T12:25:50;27.80;59.50
34558;DHT22;24708;48.888;8.736;2023-06-01T12:28:18;27.30;70.90
34558;DHT22;24708;48.888;8.736;2023-06-01T12:30:46;27.60;62.10
34558;DHT22;24708;48.888;8.736;2023-06-01T12:33:33;27.40;59.80
34558;DHT22;24708;48.888;8.736;2023-06-01T12:36:01;27.20;59.60
34558;DHT22;24708;48.888;8.736;2023-06-01T12:38:37;27.40;62.40
34558;DHT22;24708;48.888;8.736;2023-06-01T12:41:09;27.20;60.80
34558;DHT22;24708;48.888;8.736;2023-06-01T12:46:06;27.30;58.50
34558;DHT22;24708;48.888;8.736;2023-06-01T12:48:36;27.30;59.90
34558;DHT22;24708;48.888;8.736;2023-06-01T12:51:04;27.50;60.20
34558;DHT22;24708;48.888;8.736;2023-06-01T12:53:32;27.50;60.60
34558;DHT22;24708;48.888;8.736;2023-06-01T12:58:27;27.10;60.30
34558;DHT22;24708;48.888;8.736;2023-06-01T13:00:57;27.00;59.40
34558;DHT22;24708;48.888;8.736;2023-06-01T13:08:20;26.90;61.20
34558;DHT22;24708;48.888;8.736;2023-06-01T13:10:49;26.80;61.70
34558;DHT22;24708;48.888;8.736;2023-06-01T13:15:45;26.90;59.00
34558;DHT22;24708;48.888;8.736;2023-06-01T13:18:12;26.90;59.80
34558;DHT22;24708;48.888;8.736;2023-06-01T13:20:40;26.80;59.20
34558;DHT22;24708;48.888;8.736;2023-06-01T13:23:08;26.60;59.30
34558;DHT22;24708;48.888;8.736;2023-06-01T13:25:37;27.10;59.90
34558;DHT22;24708;48.888;8.736;2023-06-01T13:30:34;26.80;59.10
34558;DHT22;24708;48.888;8.736;2023-06-01T13:37:57;26.80;58.90
34558;DHT22;24708;48.888;8.736;2023-06-01T13:42:53;26.70;57.20
34558;DHT22;24708;48.888;8.736;2023-06-01T13:47:48;26.50;58.40
34558;DHT22;24708;48.888;8.736;2023-06-01T13:50:17;26.40;66.60
34558;DHT22;24708;48.888;8.736;2023-06-01T13:55:13;26.50;58.80
34558;DHT22;24708;48.888;8.736;2023-06-01T14:00:09;26.40;59.30
34558;DHT22;24708;48.888;8.736;2023-06-01T14:02:36;26.60;58.40
34558;DHT22;24708;48.888;8.736;2023-06-01T14:05:04;26.50;58.30
34558;DHT22;24708;48.888;8.736;2023-06-01T14:07:36;26.50;59.70
34558;DHT22;24708;48.888;8.736;2023-06-01T14:10:04;26.20;70.50
34558;DHT22;24708;48.888;8.736;2023-06-01T14:12:32;26.50;59.20
34558;DHT22;24708;48.888;8.736;2023-06-01T14:14:59;26.40;60.30
34558;DHT22;24708;48.888;8.736;2023-06-01T14:19:54;26.40;60.00
34558;DHT22;24708;48.888;8.736;2023-06-01T14:29:44;26.20;58.90
34558;DHT22;24708;48.888;8.736;2023-06-01T14:32:12;27.60;60.20
34558;DHT22;24708;48.888;8.736;2023-06-01T14:34:39;26.40;59.60
34558;DHT22;24708;48.888;8.736;2023-06-01T14:37:06;26.20;59.00
34558;DHT22;24708;48.888;8.736;2023-06-01T14:42:05;26.10;58.70
34558;DHT22;24708;48.888;8.736;2023-06-01T14:44:33;26.10;59.10
34558;DHT22;24708;48.888;8.736;2023-06-01T14:49:29;25.80;58.00
34558;DHT22;24708;48.888;8.736;2023-06-01T14:52:12;25.60;57.10
34558;DHT22;24708;48.888;8.736;2023-06-01T14:54:40;26.00;58.40
34558;DHT22;24708;48.888;8.736;2023-06-01T14:59:36;25.90;56.60
34558;DHT22;24708;48.888;8.736;2023-06-01T15:02:11;25.60;65.30
34558;DHT22;24708;48.888;8.736;2023-06-01T15:07:07;25.80;56.40
34558;DHT22;24708;48.888;8.736;2023-06-01T15:09:34;26.10;69.10
34558;DHT22;24708;48.888;8.736;2023-06-01T15:14:30;25.70;57.80
34558;DHT22;24708;48.888;8.736;2023-06-01T15:21:52;25.70;57.80
34558;DHT22;24708;48.888;8.736;2023-06-01T15:24:20;25.40;58.70
34558;DHT22;24708;48.888;8.736;2023-06-01T15:26:47;27.00;60.00
34558;DHT22;24708;48.888;8.736;2023-06-01T15:29:15;25.70;59.50
34558;DHT22;24708;48.888;8.736;2023-06-01T15:34:10;25.50;58.80
34558;DHT22;24708;48.888;8.736;2023-06-01T15:36:38;25.40;59.90
34558;DHT22;24708;48.888;8.736;2023-06-01T15:39:05;25.40;59.70
34558;DHT22;24708;48.888;8.736;2023-06-01T15:46:28;25.40;60.70
34558;DHT22;24708;48.888;8.736;2023-06-01T15:51:23;25.60;59.90
34558;DHT22;24708;48.888;8.736;2023-06-01T15:53:51;25.60;62.30
34558;DHT22;24708;48.888;8.736;2023-06-01T15:56:18;25.70;73.90
